metar:  

KBOI 250153Z 35011KT 10SM CLR 19/M04 A3006 RMK AO2 SLP167 T01941044